sensor_id;sensor_type;location;lat;lon;timestamp;temperature;humidity
34153;DHT22;20426;48.372;10.888;2022-07-29T00:00:19;19.00;99.90
34153;DHT22;20426;48.372;10.888;2022-07-29T00:00:50;19.00;99.90
34153;DHT22;20426;48.372;10.888;2022-07-29T00:01:21;19.00;99.90
34153;DHT22;20426;48.372;10.888;2022-07-29T00:01:52;19.00;99.90
34153;DHT22;20426;48.372;10.888;2022-07-29T00:02:23;19.00;99.90
34153;DHT22;20426;48.372;10.888;2022-07-29T00:02:53;18.90;99.90
34153;DHT22;20426;48.372;10.888;2022-07-29T00:03:24;18.90;99.90
34153;DHT22;20426;48.372;10.888;2022-07-29T00:03:55;19.00;99.90
34153;DHT22;20426;48.372;10.888;2022-07-29T00:04:26;19.00;99.90
34153;DHT22;20426;48.372;10.888;2022-07-29T00:04:56;19.00;99.90
34153;DHT22;20426;48.372;10.888;2022-07-29T00:05:27;19.00;99.90
34153;DHT22;20426;48.372;10.888;2022-07-29T00:05:58;19.00;99.90
34153;DHT22;20426;48.372;10.888;2022-07-29T00:06:29;19.00;99.90
34153;DHT22;20426;48.372;10.888;2022-07-29T00:06:59;19.00;99.90
34153;DHT22;20426;48.372;10.888;2022-07-29T00:07:30;19.00;99.90
34153;DHT22;20426;48.372;10.888;2022-07-29T00:08:01;19.00;99.90
34153;DHT22;20426;48.372;10.888;2022-07-29T00:08:32;19.00;99.90
34153;DHT22;20426;48.372;10.888;2022-07-29T00:09:03;19.00;99.90
34153;DHT22;20426;48.372;10.888;2022-07-29T00:09:34;19.00;99.90
34153;DHT22;20426;48.372;10.888;2022-07-29T00:10:05;19.00;99.90
34153;DHT22;20426;48.372;10.888;2022-07-29T00:10:35;19.00;99.90
34153;DHT22;20426;48.372;10.888;2022-07-29T00:11:06;19.00;99.90
34153;DHT22;20426;48.372;10.888;2022-07-29T00:11:37;18.90;99.90
34153;DHT22;20426;48.372;10.888;2022-07-29T00:12:08;18.90;99.90
34153;DHT22;20426;48.372;10.888;2022-07-29T00:12:39;18.90;99.90
34153;DHT22;20426;48.372;10.888;2022-07-29T00:13:10;18.90;99.90
34153;DHT22;20426;48.372;10.888;2022-07-29T00:13:41;18.90;99.90
34153;DHT22;20426;48.372;10.888;2022-07-29T00:14:11;18.90;99.90
34153;DHT22;20426;48.372;10.888;2022-07-29T00:14:42;18.90;99.90
34153;DHT22;20426;48.372;10.888;2022-07-29T00:15:13;18.90;99.90
34153;DHT22;20426;48.372;10.888;2022-07-29T00:15:44;18.90;99.90
34153;DHT22;20426;48.372;10.888;2022-07-29T00:16:15;18.90;99.90
34153;DHT22;20426;48.372;10.888;2022-07-29T00:16:45;18.90;99.90
34153;DHT22;20426;48.372;10.888;2022-07-29T00:17:16;18.90;99.90
34153;DHT22;20426;48.372;10.888;2022-07-29T00:17:47;18.90;99.90
34153;DHT22;20426;48.372;10.888;2022-07-29T00:18:18;18.80;99.90
34153;DHT22;20426;48.372;10.888;2022-07-29T00:18:48;18.80;99.90
34153;DHT22;20426;48.372;10.888;2022-07-29T00:19:19;18.80;99.90
34153;DHT22;20426;48.372;10.888;2022-07-29T00:19:50;18.80;99.90
34153;DHT22;20426;48.372;10.888;2022-07-29T00:20:21;18.80;99.90
34153;DHT22;20426;48.372;10.888;2022-07-29T00:20:52;18.80;99.90
34153;DHT22;20426;48.372;10.888;2022-07-29T00:21:22;18.90;99.90
34153;DHT22;20426;48.372;10.888;2022-07-29T00:21:53;18.90;99.90
34153;DHT22;20426;48.372;10.888;2022-07-29T00:22:24;18.90;99.90
34153;DHT22;20426;48.372;10.888;2022-07-29T00:22:54;18.80;99.90
34153;DHT22;20426;48.372;10.888;2022-07-29T00:23:25;18.90;99.90
34153;DHT22;20426;48.372;10.888;2022-07-29T00:23:56;18.90;99.90
34153;DHT22;20426;48.372;10.888;2022-07-29T00:24:27;18.90;99.90
34153;DHT22;20426;48.372;10.888;2022-07-29T00:24:57;18.90;99.90
34153;DHT22;20426;48.372;10.888;2022-07-29T00:25:28;18.90;99.90
34153;DHT22;20426;48.372;10.888;2022-07-29T00:25:59;18.90;99.90
34153;DHT22;20426;48.372;10.888;2022-07-29T00:26:29;18.90;99.90
34153;DHT22;20426;48.372;10.888;2022-07-29T00:27:02;18.80;99.90
34153;DHT22;20426;48.372;10.888;2022-07-29T00:27:33;18.80;99.90
34153;DHT22;20426;48.372;10.888;2022-07-29T00:28:03;18.80;99.90
34153;DHT22;20426;48.372;10.888;2022-07-29T00:28:34;18.90;99.90
34153;DHT22;20426;48.372;10.888;2022-07-29T00:29:05;18.80;99.90
34153;DHT22;20426;48.372;10.888;2022-07-29T00:29:36;18.80;99.90
34153;DHT22;20426;48.372;10.888;2022-07-29T00:30:07;18.80;99.90
34153;DHT22;20426;48.372;10.888;2022-07-29T00:30:38;18.80;99.90
34153;DHT22;20426;48.372;10.888;2022-07-29T00:31:09;18.80;99.90
34153;DHT22;20426;48.372;10.888;2022-07-29T00:31:39;18.80;99.90
34153;DHT22;20426;48.372;10.888;2022-07-29T00:32:10;18.80;99.90
34153;DHT22;20426;48.372;10.888;2022-07-29T00:32:41;18.80;99.90
34153;DHT22;20426;48.372;10.888;2022-07-29T00:33:12;18.80;99.90
34153;DHT22;20426;48.372;10.888;2022-07-29T00:33:42;18.80;99.90
34153;DHT22;20426;48.372;10.888;2022-07-29T00:34:13;18.80;99.90
34153;DHT22;20426;48.372;10.888;2022-07-29T00:35:03;18.80;99.90
34153;DHT22;20426;48.372;10.888;2022-07-29T00:35:52;18.90;99.90
34153;DHT22;20426;48.372;10.888;2022-07-29T00:36:23;18.90;99.90
34153;DHT22;20426;48.372;10.888;2022-07-29T00:36:53;18.90;99.90
34153;DHT22;20426;48.372;10.888;2022-07-29T00:37:25;18.90;99.90
34153;DHT22;20426;48.372;10.888;2022-07-29T00:37:55;19.00;99.90
34153;DHT22;20426;48.372;10.888;2022-07-29T00:38:26;18.90;99.90
34153;DHT22;20426;48.372;10.888;2022-07-29T00:38:57;19.00;99.90
34153;DHT22;20426;48.372;10.888;2022-07-29T00:39:28;19.00;99.90
34153;DHT22;20426;48.372;10.888;2022-07-29T00:39:58;19.00;99.90
34153;DHT22;20426;48.372;10.888;2022-07-29T00:40:29;18.90;99.90
34153;DHT22;20426;48.372;10.888;2022-07-29T00:41:00;18.90;99.90
34153;DHT22;20426;48.372;10.888;2022-07-29T00:41:30;19.00;99.90
34153;DHT22;20426;48.372;10.888;2022-07-29T00:42:04;18.90;99.90
34153;DHT22;20426;48.372;10.888;2022-07-29T00:42:46;18.90;99.90
34153;DHT22;20426;48.372;10.888;2022-07-29T00:43:17;18.90;99.90
34153;DHT22;20426;48.372;10.888;2022-07-29T00:43:48;18.90;99.90
34153;DHT22;20426;48.372;10.888;2022-07-29T00:44:18;18.90;99.90
34153;DHT22;20426;48.372;10.888;2022-07-29T00:44:49;18.90;99.90
34153;DHT22;20426;48.372;10.888;2022-07-29T00:45:20;18.90;99.90
34153;DHT22;20426;48.372;10.888;2022-07-29T00:45:52;18.90;99.90
34153;DHT22;20426;48.372;10.888;2022-07-29T00:46:23;18.90;99.90
34153;DHT22;20426;48.372;10.888;2022-07-29T00:46:53;18.90;99.90
34153;DHT22;20426;48.372;10.888;2022-07-29T00:47:24;18.90;99.90
34153;DHT22;20426;48.372;10.888;2022-07-29T00:47:55;18.80;99.90
34153;DHT22;20426;48.372;10.888;2022-07-29T00:48:26;18.80;99.90
34153;DHT22;20426;48.372;10.888;2022-07-29T00:48:57;18.80;99.90
34153;DHT22;20426;48.372;10.888;2022-07-29T00:49:28;18.80;99.90
34153;DHT22;20426;48.372;10.888;2022-07-29T00:49:58;18.80;99.90
34153;DHT22;20426;48.372;10.888;2022-07-29T00:50:29;18.80;99.90
34153;DHT22;20426;48.372;10.888;2022-07-29T00:51:02;18.80;99.90
34153;DHT22;20426;48.372;10.888;2022-07-29T00:51:35;18.80;99.90
34153;DHT22;20426;48.372;10.888;2022-07-29T00:52:08;18.80;99.90
34153;DHT22;20426;48.372;10.888;2022-07-29T00:52:40;18.70;99.90
34153;DHT22;20426;48.372;10.888;2022-07-29T00:53:12;18.70;99.90
34153;DHT22;20426;48.372;10.888;2022-07-29T00:53:42;18.70;99.90
34153;DHT22;20426;48.372;10.888;2022-07-29T00:54:14;18.70;99.90
34153;DHT22;20426;48.372;10.888;2022-07-29T00:54:45;18.70;99.90
34153;DHT22;20426;48.372;10.888;2022-07-29T00:55:16;18.70;99.90
34153;DHT22;20426;48.372;10.888;2022-07-29T00:55:47;18.70;99.90
34153;DHT22;20426;48.372;10.888;2022-07-29T00:56:18;18.60;99.90
34153;DHT22;20426;48.372;10.888;2022-07-29T00:56:49;18.70;99.90
34153;DHT22;20426;48.372;10.888;2022-07-29T00:57:20;18.60;99.90
34153;DHT22;20426;48.372;10.888;2022-07-29T00:57:51;18.60;99.90
34153;DHT22;20426;48.372;10.888;2022-07-29T00:58:23;18.60;99.90
34153;DHT22;20426;48.372;10.888;2022-07-29T00:58:55;18.60;99.90
34153;DHT22;20426;48.372;10.888;2022-07-29T00:59:27;18.60;99.90
34153;DHT22;20426;48.372;10.888;2022-07-29T00:59:58;18.60;99.90
34153;DHT22;20426;48.372;10.888;2022-07-29T01:00:29;18.60;99.90
34153;DHT22;20426;48.372;10.888;2022-07-29T01:01:00;18.50;99.90
34153;DHT22;20426;48.372;10.888;2022-07-29T01:01:31;18.50;99.90
34153;DHT22;20426;48.372;10.888;2022-07-29T01:02:04;18.50;99.90
34153;DHT22;20426;48.372;10.888;2022-07-29T01:02:35;18.50;99.90
34153;DHT22;20426;48.372;10.888;2022-07-29T01:03:07;18.50;99.90
34153;DHT22;20426;48.372;10.888;2022-07-29T01:03:38;18.50;99.90
34153;DHT22;20426;48.372;10.888;2022-07-29T01:04:08;18.50;99.90
34153;DHT22;20426;48.372;10.888;2022-07-29T01:04:40;18.50;99.90
34153;DHT22;20426;48.372;10.888;2022-07-29T01:05:11;18.50;99.90
34153;DHT22;20426;48.372;10.888;2022-07-29T01:05:44;18.50;99.90
34153;DHT22;20426;48.372;10.888;2022-07-29T01:06:17;18.50;99.90
34153;DHT22;20426;48.372;10.888;2022-07-29T01:06:49;18.50;99.90
34153;DHT22;20426;48.372;10.888;2022-07-29T01:07:19;18.50;99.90
34153;DHT22;20426;48.372;10.888;2022-07-29T01:07:53;18.50;99.90
34153;DHT22;20426;48.372;10.888;2022-07-29T01:08:24;18.50;99.90
34153;DHT22;20426;48.372;10.888;2022-07-29T01:08:56;18.50;99.90
34153;DHT22;20426;48.372;10.888;2022-07-29T01:09:27;18.50;99.90
34153;DHT22;20426;48.372;10.888;2022-07-29T01:09:58;18.50;99.90
34153;DHT22;20426;48.372;10.888;2022-07-29T01:10:30;18.50;99.90
34153;DHT22;20426;48.372;10.888;2022-07-29T01:11:02;18.50;99.90
34153;DHT22;20426;48.372;10.888;2022-07-29T01:11:34;18.50;99.90
34153;DHT22;20426;48.372;10.888;2022-07-29T01:12:05;18.50;99.90
34153;DHT22;20426;48.372;10.888;2022-07-29T01:12:37;18.50;99.90
34153;DHT22;20426;48.372;10.888;2022-07-29T01:13:09;18.50;99.90
34153;DHT22;20426;48.372;10.888;2022-07-29T01:13:40;18.50;99.90
34153;DHT22;20426;48.372;10.888;2022-07-29T01:14:12;18.50;99.90
34153;DHT22;20426;48.372;10.888;2022-07-29T01:14:43;18.50;99.90
34153;DHT22;20426;48.372;10.888;2022-07-29T01:15:14;18.50;99.90
34153;DHT22;20426;48.372;10.888;2022-07-29T01:15:55;18.50;99.90
34153;DHT22;20426;48.372;10.888;2022-07-29T01:16:39;18.50;99.90
34153;DHT22;20426;48.372;10.888;2022-07-29T01:18:16;18.50;99.90
34153;DHT22;20426;48.372;10.888;2022-07-29T01:18:49;18.50;99.90
34153;DHT22;20426;48.372;10.888;2022-07-29T01:22:00;18.50;99.90
34153;DHT22;20426;48.372;10.888;2022-07-29T01:24:03;18.50;99.90
34153;DHT22;20426;48.372;10.888;2022-07-29T01:28:37;18.50;99.90
34153;DHT22;20426;48.372;10.888;2022-07-29T01:29:45;18.40;99.90
34153;DHT22;20426;48.372;10.888;2022-07-29T01:30:17;18.40;99.90
34153;DHT22;20426;48.372;10.888;2022-07-29T01:30:51;18.40;99.90
34153;DHT22;20426;48.372;10.888;2022-07-29T01:31:54;18.40;99.90
34153;DHT22;20426;48.372;10.888;2022-07-29T01:32:29;18.50;99.90
34153;DHT22;20426;48.372;10.888;2022-07-29T01:33:04;18.50;99.90
34153;DHT22;20426;48.372;10.888;2022-07-29T01:33:41;18.50;99.90
34153;DHT22;20426;48.372;10.888;2022-07-29T01:34:35;18.50;99.90
34153;DHT22;20426;48.372;10.888;2022-07-29T01:35:17;18.50;99.90
34153;DHT22;20426;48.372;10.888;2022-07-29T01:35:49;18.40;99.90
34153;DHT22;20426;48.372;10.888;2022-07-29T01:36:31;18.40;99.90
34153;DHT22;20426;48.372;10.888;2022-07-29T01:38:39;18.40;99.90
34153;DHT22;20426;48.372;10.888;2022-07-29T01:39:18;18.40;99.90
34153;DHT22;20426;48.372;10.888;2022-07-29T01:39:52;18.40;99.90
34153;DHT22;20426;48.372;10.888;2022-07-29T01:40:30;18.40;99.90
34153;DHT22;20426;48.372;10.888;2022-07-29T01:41:10;18.40;99.90
34153;DHT22;20426;48.372;10.888;2022-07-29T01:41:49;18.30;99.90
34153;DHT22;20426;48.372;10.888;2022-07-29T01:42:32;18.40;99.90
34153;DHT22;20426;48.372;10.888;2022-07-29T01:43:10;18.30;99.90
34153;DHT22;20426;48.372;10.888;2022-07-29T01:43:55;18.30;99.90
34153;DHT22;20426;48.372;10.888;2022-07-29T01:45:43;18.40;99.90
34153;DHT22;20426;48.372;10.888;2022-07-29T01:46:21;18.30;99.90
34153;DHT22;20426;48.372;10.888;2022-07-29T01:46:58;18.30;99.90
34153;DHT22;20426;48.372;10.888;2022-07-29T01:47:46;18.30;99.90
34153;DHT22;20426;48.372;10.888;2022-07-29T01:48:48;18.30;99.90
34153;DHT22;20426;48.372;10.888;2022-07-29T01:49:25;18.30;99.90
34153;DHT22;20426;48.372;10.888;2022-07-29T01:49:58;18.30;99.90
34153;DHT22;20426;48.372;10.888;2022-07-29T01:51:27;18.20;99.90
34153;DHT22;20426;48.372;10.888;2022-07-29T01:52:05;18.20;99.90
34153;DHT22;20426;48.372;10.888;2022-07-29T01:52:42;18.20;99.90
34153;DHT22;20426;48.372;10.888;2022-07-29T01:53:21;18.20;99.90
34153;DHT22;20426;48.372;10.888;2022-07-29T01:54:57;18.20;99.90
34153;DHT22;20426;48.372;10.888;2022-07-29T01:55:32;18.20;99.90
34153;DHT22;20426;48.372;10.888;2022-07-29T01:56:06;18.20;99.90
34153;DHT22;20426;48.372;10.888;2022-07-29T01:56:38;18.20;99.90
34153;DHT22;20426;48.372;10.888;2022-07-29T01:57:12;18.20;99.90
34153;DHT22;20426;48.372;10.888;2022-07-29T01:57:46;18.20;99.90
34153;DHT22;20426;48.372;10.888;2022-07-29T01:58:18;18.20;99.90
34153;DHT22;20426;48.372;10.888;2022-07-29T01:58:49;18.20;99.90
34153;DHT22;20426;48.372;10.888;2022-07-29T01:59:23;18.10;99.90
34153;DHT22;20426;48.372;10.888;2022-07-29T01:59:57;18.10;99.90
34153;DHT22;20426;48.372;10.888;2022-07-29T02:00:30;18.10;99.90
34153;DHT22;20426;48.372;10.888;2022-07-29T02:01:03;18.10;99.90
34153;DHT22;20426;48.372;10.888;2022-07-29T02:01:35;18.10;99.90
34153;DHT22;20426;48.372;10.888;2022-07-29T02:02:08;18.10;99.90
34153;DHT22;20426;48.372;10.888;2022-07-29T02:02:43;18.10;99.90
34153;DHT22;20426;48.372;10.888;2022-07-29T02:03:17;18.10;99.90
34153;DHT22;20426;48.372;10.888;2022-07-29T02:03:50;18.10;99.90
34153;DHT22;20426;48.372;10.888;2022-07-29T02:04:21;18.10;99.90
34153;DHT22;20426;48.372;10.888;2022-07-29T02:04:54;18.10;99.90
34153;DHT22;20426;48.372;10.888;2022-07-29T02:05:27;18.10;99.90
34153;DHT22;20426;48.372;10.888;2022-07-29T02:06:00;18.10;99.90
34153;DHT22;20426;48.372;10.888;2022-07-29T02:06:33;18.10;99.90
34153;DHT22;20426;48.372;10.888;2022-07-29T02:07:12;18.10;99.90
34153;DHT22;20426;48.372;10.888;2022-07-29T02:07:46;18.10;99.90
34153;DHT22;20426;48.372;10.888;2022-07-29T02:08:19;18.10;99.90
34153;DHT22;20426;48.372;10.888;2022-07-29T02:08:51;18.10;99.90
34153;DHT22;20426;48.372;10.888;2022-07-29T02:09:24;18.00;99.90
34153;DHT22;20426;48.372;10.888;2022-07-29T02:09:58;18.00;99.90
34153;DHT22;20426;48.372;10.888;2022-07-29T02:10:34;18.10;99.90
34153;DHT22;20426;48.372;10.888;2022-07-29T02:11:07;18.00;99.90
34153;DHT22;20426;48.372;10.888;2022-07-29T02:11:39;18.00;99.90
34153;DHT22;20426;48.372;10.888;2022-07-29T02:12:11;18.00;99.90
34153;DHT22;20426;48.372;10.888;2022-07-29T02:12:45;18.00;99.90
34153;DHT22;20426;48.372;10.888;2022-07-29T02:13:17;18.00;99.90
34153;DHT22;20426;48.372;10.888;2022-07-29T02:13:48;18.00;99.90
34153;DHT22;20426;48.372;10.888;2022-07-29T02:14:22;18.00;99.90
34153;DHT22;20426;48.372;10.888;2022-07-29T02:14:54;18.00;99.90
34153;DHT22;20426;48.372;10.888;2022-07-29T02:15:29;18.00;99.90
34153;DHT22;20426;48.372;10.888;2022-07-29T02:16:02;18.00;99.90
34153;DHT22;20426;48.372;10.888;2022-07-29T02:16:36;18.00;99.90
34153;DHT22;20426;48.372;10.888;2022-07-29T02:17:08;18.00;99.90
34153;DHT22;20426;48.372;10.888;2022-07-29T02:17:44;18.00;99.90
34153;DHT22;20426;48.372;10.888;2022-07-29T02:18:17;18.00;99.90
34153;DHT22;20426;48.372;10.888;2022-07-29T02:18:51;18.00;99.90
34153;DHT22;20426;48.372;10.888;2022-07-29T02:19:25;18.00;99.90
34153;DHT22;20426;48.372;10.888;2022-07-29T02:19:59;18.00;99.90
34153;DHT22;20426;48.372;10.888;2022-07-29T02:20:30;18.00;99.90
34153;DHT22;20426;48.372;10.888;2022-07-29T02:21:03;18.00;99.90
34153;DHT22;20426;48.372;10.888;2022-07-29T02:21:35;18.00;99.90
34153;DHT22;20426;48.372;10.888;2022-07-29T02:22:06;17.90;99.90
34153;DHT22;20426;48.372;10.888;2022-07-29T02:22:39;18.00;99.90
34153;DHT22;20426;48.372;10.888;2022-07-29T02:23:11;18.00;99.90
34153;DHT22;20426;48.372;10.888;2022-07-29T02:23:44;18.00;99.90
34153;DHT22;20426;48.372;10.888;2022-07-29T02:24:18;18.00;99.90
34153;DHT22;20426;48.372;10.888;2022-07-29T02:24:50;18.00;99.90
34153;DHT22;20426;48.372;10.888;2022-07-29T02:25:22;17.90;99.90
34153;DHT22;20426;48.372;10.888;2022-07-29T02:25:56;17.90;99.90
34153;DHT22;20426;48.372;10.888;2022-07-29T02:26:29;17.90;99.90
34153;DHT22;20426;48.372;10.888;2022-07-29T02:27:01;17.90;99.90
34153;DHT22;20426;48.372;10.888;2022-07-29T02:27:33;17.90;99.90
34153;DHT22;20426;48.372;10.888;2022-07-29T02:28:05;17.90;99.90
34153;DHT22;20426;48.372;10.888;2022-07-29T02:28:38;17.90;99.90
34153;DHT22;20426;48.372;10.888;2022-07-29T02:29:10;17.90;99.90
34153;DHT22;20426;48.372;10.888;2022-07-29T02:29:43;17.90;99.90
34153;DHT22;20426;48.372;10.888;2022-07-29T02:30:16;17.90;99.90
34153;DHT22;20426;48.372;10.888;2022-07-29T02:30:48;17.90;99.90
34153;DHT22;20426;48.372;10.888;2022-07-29T02:31:24;17.90;99.90
34153;DHT22;20426;48.372;10.888;2022-07-29T02:31:57;17.90;99.90
34153;DHT22;20426;48.372;10.888;2022-07-29T02:32:30;18.00;99.90
34153;DHT22;20426;48.372;10.888;2022-07-29T02:33:03;17.90;99.90
34153;DHT22;20426;48.372;10.888;2022-07-29T02:33:35;17.90;99.90
34153;DHT22;20426;48.372;10.888;2022-07-29T02:34:08;17.90;99.90
34153;DHT22;20426;48.372;10.888;2022-07-29T02:34:41;17.90;99.90
34153;DHT22;20426;48.372;10.888;2022-07-29T02:35:14;17.90;99.90
34153;DHT22;20426;48.372;10.888;2022-07-29T02:35:46;17.90;99.90
34153;DHT22;20426;48.372;10.888;2022-07-29T02:36:19;17.90;99.90
34153;DHT22;20426;48.372;10.888;2022-07-29T02:36:52;18.00;99.90
34153;DHT22;20426;48.372;10.888;2022-07-29T02:37:26;18.00;99.90
34153;DHT22;20426;48.372;10.888;2022-07-29T02:37:57;18.00;99.90
34153;DHT22;20426;48.372;10.888;2022-07-29T02:38:48;18.00;99.90
34153;DHT22;20426;48.372;10.888;2022-07-29T02:39:24;18.00;99.90
34153;DHT22;20426;48.372;10.888;2022-07-29T02:39:58;18.00;99.90
34153;DHT22;20426;48.372;10.888;2022-07-29T02:40:29;18.00;99.90
34153;DHT22;20426;48.372;10.888;2022-07-29T02:41:08;18.00;99.90
34153;DHT22;20426;48.372;10.888;2022-07-29T02:41:45;18.00;99.90
34153;DHT22;20426;48.372;10.888;2022-07-29T02:42:17;18.00;99.90
34153;DHT22;20426;48.372;10.888;2022-07-29T02:42:48;18.00;99.90
34153;DHT22;20426;48.372;10.888;2022-07-29T02:43:21;18.00;99.90
34153;DHT22;20426;48.372;10.888;2022-07-29T02:43:56;18.00;99.90
34153;DHT22;20426;48.372;10.888;2022-07-29T02:44:28;18.00;99.90
34153;DHT22;20426;48.372;10.888;2022-07-29T02:44:59;18.00;99.90
34153;DHT22;20426;48.372;10.888;2022-07-29T02:45:29;18.00;99.90
34153;DHT22;20426;48.372;10.888;2022-07-29T02:46:03;18.00;99.90
34153;DHT22;20426;48.372;10.888;2022-07-29T02:46:36;18.00;99.90
34153;DHT22;20426;48.372;10.888;2022-07-29T02:47:30;18.00;99.90
34153;DHT22;20426;48.372;10.888;2022-07-29T02:48:09;18.00;99.90
34153;DHT22;20426;48.372;10.888;2022-07-29T02:48:55;18.00;99.90
34153;DHT22;20426;48.372;10.888;2022-07-29T02:50:09;18.00;99.90
34153;DHT22;20426;48.372;10.888;2022-07-29T02:50:51;18.00;99.90
34153;DHT22;20426;48.372;10.888;2022-07-29T02:51:45;18.00;99.90
34153;DHT22;20426;48.372;10.888;2022-07-29T02:52:27;18.00;99.90
34153;DHT22;20426;48.372;10.888;2022-07-29T02:53:07;18.00;99.90
34153;DHT22;20426;48.372;10.888;2022-07-29T02:53:42;18.00;99.90
34153;DHT22;20426;48.372;10.888;2022-07-29T02:55:00;18.00;99.90
34153;DHT22;20426;48.372;10.888;2022-07-29T02:55:39;18.00;99.90
34153;DHT22;20426;48.372;10.888;2022-07-29T02:56:13;18.00;99.90
34153;DHT22;20426;48.372;10.888;2022-07-29T02:56:46;18.00;99.90
34153;DHT22;20426;48.372;10.888;2022-07-29T02:57:34;18.00;99.90
34153;DHT22;20426;48.372;10.888;2022-07-29T02:58:19;18.00;99.90
34153;DHT22;20426;48.372;10.888;2022-07-29T02:58:58;18.00;99.90
34153;DHT22;20426;48.372;10.888;2022-07-29T02:59:34;18.00;99.90
34153;DHT22;20426;48.372;10.888;2022-07-29T03:00:08;18.00;99.90
34153;DHT22;20426;48.372;10.888;2022-07-29T03:00:40;18.00;99.90
34153;DHT22;20426;48.372;10.888;2022-07-29T03:01:15;18.00;99.90
34153;DHT22;20426;48.372;10.888;2022-07-29T03:01:47;18.00;99.90
34153;DHT22;20426;48.372;10.888;2022-07-29T03:02:18;18.00;99.90
34153;DHT22;20426;48.372;10.888;2022-07-29T03:02:52;17.90;99.90
34153;DHT22;20426;48.372;10.888;2022-07-29T03:03:26;17.90;99.90
34153;DHT22;20426;48.372;10.888;2022-07-29T03:04:01;17.90;99.90
34153;DHT22;20426;48.372;10.888;2022-07-29T03:04:34;17.90;99.90
34153;DHT22;20426;48.372;10.888;2022-07-29T03:05:09;17.90;99.90
34153;DHT22;20426;48.372;10.888;2022-07-29T03:05:41;17.90;99.90
34153;DHT22;20426;48.372;10.888;2022-07-29T03:06:13;17.80;99.90
34153;DHT22;20426;48.372;10.888;2022-07-29T03:06:45;17.80;99.90
34153;DHT22;20426;48.372;10.888;2022-07-29T03:07:18;17.80;99.90
34153;DHT22;20426;48.372;10.888;2022-07-29T03:07:58;17.80;99.90
34153;DHT22;20426;48.372;10.888;2022-07-29T03:08:30;17.90;99.90
34153;DHT22;20426;48.372;10.888;2022-07-29T03:09:02;17.90;99.90
34153;DHT22;20426;48.372;10.888;2022-07-29T03:09:33;17.90;99.90
34153;DHT22;20426;48.372;10.888;2022-07-29T03:10:05;17.90;99.90
34153;DHT22;20426;48.372;10.888;2022-07-29T03:10:39;17.90;99.90
34153;DHT22;20426;48.372;10.888;2022-07-29T03:11:10;17.90;99.90
34153;DHT22;20426;48.372;10.888;2022-07-29T03:11:44;18.00;99.90
34153;DHT22;20426;48.372;10.888;2022-07-29T03:12:15;18.00;99.90
34153;DHT22;20426;48.372;10.888;2022-07-29T03:12:47;18.00;99.90
34153;DHT22;20426;48.372;10.888;2022-07-29T03:13:19;18.00;99.90
34153;DHT22;20426;48.372;10.888;2022-07-29T03:13:50;18.00;99.90
34153;DHT22;20426;48.372;10.888;2022-07-29T03:14:21;18.00;99.90
34153;DHT22;20426;48.372;10.888;2022-07-29T03:14:54;18.00;99.90
34153;DHT22;20426;48.372;10.888;2022-07-29T03:15:26;18.00;99.90
34153;DHT22;20426;48.372;10.888;2022-07-29T03:15:57;18.00;99.90
34153;DHT22;20426;48.372;10.888;2022-07-29T03:16:29;18.00;99.90
34153;DHT22;20426;48.372;10.888;2022-07-29T03:17:00;18.00;99.90
34153;DHT22;20426;48.372;10.888;2022-07-29T03:17:32;18.00;99.90
34153;DHT22;20426;48.372;10.888;2022-07-29T03:18:03;18.00;99.90
34153;DHT22;20426;48.372;10.888;2022-07-29T03:18:36;18.00;99.90
34153;DHT22;20426;48.372;10.888;2022-07-29T03:19:08;18.00;99.90
34153;DHT22;20426;48.372;10.888;2022-07-29T03:19:39;17.90;99.90
34153;DHT22;20426;48.372;10.888;2022-07-29T03:20:10;17.90;99.90
34153;DHT22;20426;48.372;10.888;2022-07-29T03:20:42;17.90;99.90
34153;DHT22;20426;48.372;10.888;2022-07-29T03:21:13;17.90;99.90
34153;DHT22;20426;48.372;10.888;2022-07-29T03:21:43;18.00;99.90
34153;DHT22;20426;48.372;10.888;2022-07-29T03:22:14;17.90;99.90
34153;DHT22;20426;48.372;10.888;2022-07-29T03:22:45;18.00;99.90
34153;DHT22;20426;48.372;10.888;2022-07-29T03:23:22;18.00;99.90
34153;DHT22;20426;48.372;10.888;2022-07-29T03:23:54;17.90;99.90
34153;DHT22;20426;48.372;10.888;2022-07-29T03:24:32;17.90;99.90
34153;DHT22;20426;48.372;10.888;2022-07-29T03:25:17;17.90;99.90
34153;DHT22;20426;48.372;10.888;2022-07-29T03:25:49;17.90;99.90
34153;DHT22;20426;48.372;10.888;2022-07-29T03:26:20;17.90;99.90
34153;DHT22;20426;48.372;10.888;2022-07-29T03:26:51;17.90;99.90
34153;DHT22;20426;48.372;10.888;2022-07-29T03:27:22;17.90;99.90
34153;DHT22;20426;48.372;10.888;2022-07-29T03:27:52;17.90;99.90
34153;DHT22;20426;48.372;10.888;2022-07-29T03:28:24;17.90;99.90
34153;DHT22;20426;48.372;10.888;2022-07-29T03:28:57;17.90;99.90
34153;DHT22;20426;48.372;10.888;2022-07-29T03:29:28;18.00;99.90
34153;DHT22;20426;48.372;10.888;2022-07-29T03:29:58;18.00;99.90
34153;DHT22;20426;48.372;10.888;2022-07-29T03:30:29;18.00;99.90
34153;DHT22;20426;48.372;10.888;2022-07-29T03:31:01;18.00;99.90
34153;DHT22;20426;48.372;10.888;2022-07-29T03:31:31;17.90;99.90
34153;DHT22;20426;48.372;10.888;2022-07-29T03:32:04;17.90;99.90
34153;DHT22;20426;48.372;10.888;2022-07-29T03:32:35;17.90;99.90
34153;DHT22;20426;48.372;10.888;2022-07-29T03:33:06;17.90;99.90
34153;DHT22;20426;48.372;10.888;2022-07-29T03:33:37;17.90;99.90
34153;DHT22;20426;48.372;10.888;2022-07-29T03:34:08;17.90;99.90
34153;DHT22;20426;48.372;10.888;2022-07-29T03:34:38;17.90;99.90
34153;DHT22;20426;48.372;10.888;2022-07-29T03:35:09;17.90;99.90
34153;DHT22;20426;48.372;10.888;2022-07-29T03:35:40;17.90;99.90
34153;DHT22;20426;48.372;10.888;2022-07-29T03:36:11;17.90;99.90
34153;DHT22;20426;48.372;10.888;2022-07-29T03:36:42;17.90;99.90
34153;DHT22;20426;48.372;10.888;2022-07-29T03:37:12;17.90;99.90
34153;DHT22;20426;48.372;10.888;2022-07-29T03:37:44;17.90;99.90
34153;DHT22;20426;48.372;10.888;2022-07-29T03:38:14;17.90;99.90
34153;DHT22;20426;48.372;10.888;2022-07-29T03:38:46;17.90;99.90
34153;DHT22;20426;48.372;10.888;2022-07-29T03:39:30;17.90;99.90
34153;DHT22;20426;48.372;10.888;2022-07-29T03:40:04;17.90;99.90
34153;DHT22;20426;48.372;10.888;2022-07-29T03:40:40;17.90;99.90
34153;DHT22;20426;48.372;10.888;2022-07-29T03:41:13;17.90;99.90
34153;DHT22;20426;48.372;10.888;2022-07-29T03:41:47;17.90;99.90
34153;DHT22;20426;48.372;10.888;2022-07-29T03:42:19;17.90;99.90
34153;DHT22;20426;48.372;10.888;2022-07-29T03:42:52;17.90;99.90